Terminal Aerodrome Forecast
Issued by NWS

Home | Current Version | Previous Version | Graphics & Text | Print | Product List | Glossary On
Versions: 1 2 3 4 5 6 7 8 9 10 11 12 13 14 15 16 17 18 19 20 21 22 23 24 25 26 27 28 29 30 31 32 33 34 35 36 37 38
000
FTUS43 KLOT 171859 AAA
TAFMDW
TAF AMD
KMDW 171859Z 1719/1818 25006KT P6SM BKN080
     FM172000 09007KT P6SM BKN080
     FM180200 21004KT P6SM SCT060
     FM181100 02005KT P6SM BKN060
     FM181400 05012G17KT P6SM BKN060=

USA.gov is the U.S. government's official web portal to all federal, state and local government web resources and services.